createdAt,value
2019-05-13T00:00:44.634Z,2.80
2019-05-13T00:03:13.936Z,2.93
2019-05-13T00:05:44.470Z,4.73
2019-05-13T00:08:14.130Z,3.63
2019-05-13T00:10:43.760Z,2.50
2019-05-13T00:13:14.757Z,1.30
2019-05-13T00:15:44.392Z,2.60
2019-05-13T00:18:14.359Z,2.97
2019-05-13T00:20:44.288Z,2.23
2019-05-13T00:23:14.307Z,1.70
2019-05-13T00:25:44.449Z,3.63
2019-05-13T00:28:14.442Z,2.30
2019-05-13T00:30:44.445Z,2.63
2019-05-13T00:33:14.186Z,2.33
2019-05-13T00:35:44.291Z,2.37
2019-05-13T00:38:14.201Z,2.80
2019-05-13T00:40:44.308Z,2.93
2019-05-13T00:43:14.275Z,1.73
2019-05-13T00:45:44.538Z,1.63
2019-05-13T00:48:14.332Z,2.13
2019-05-13T00:50:44.547Z,1.70
2019-05-13T00:53:13.700Z,2.17
2019-05-13T00:55:44.457Z,2.17
2019-05-13T00:58:14.030Z,6.20
2019-05-13T01:00:44.508Z,3.90
2019-05-13T01:03:14.316Z,2.93
2019-05-13T01:05:44.486Z,3.53
2019-05-13T01:08:14.543Z,2.33
2019-05-13T01:10:45.204Z,3.37
2019-05-13T01:13:14.712Z,3.13
2019-05-13T01:15:44.270Z,2.30
2019-05-13T01:18:14.421Z,1.93
2019-05-13T01:20:44.002Z,3.43
2019-05-13T01:23:14.094Z,2.63
2019-05-13T01:25:44.467Z,3.53
2019-05-13T01:28:13.898Z,2.27
2019-05-13T01:30:43.823Z,2.50
2019-05-13T01:33:14.387Z,3.13
2019-05-13T01:35:44.593Z,5.17
2019-05-13T01:38:13.819Z,2.87
2019-05-13T01:40:44.013Z,2.87
2019-05-13T01:43:14.447Z,4.00
2019-05-13T01:45:44.333Z,2.40
2019-05-13T01:48:14.123Z,4.60
2019-05-13T01:50:44.412Z,3.77
2019-05-13T01:53:14.444Z,4.27
2019-05-13T01:55:44.258Z,4.17
2019-05-13T01:58:14.653Z,4.03
2019-05-13T02:00:44.413Z,5.33
2019-05-13T02:03:14.468Z,2.93
2019-05-13T02:05:44.360Z,3.50
2019-05-13T02:08:14.405Z,5.57
2019-05-13T02:10:54.760Z,3.00
2019-05-13T02:13:25.151Z,4.10
2019-05-13T02:16:04.563Z,3.67
2019-05-13T02:18:36.823Z,6.60
2019-05-13T02:21:05.864Z,4.70
2019-05-13T02:23:34.886Z,5.47
2019-05-13T02:26:04.488Z,6.23
2019-05-13T02:28:33.605Z,6.13
2019-05-13T02:31:02.539Z,4.90
2019-05-13T02:33:33.823Z,5.73
2019-05-13T02:36:03.200Z,4.57
2019-05-13T02:38:35.428Z,4.80
2019-05-13T02:41:03.330Z,8.07
2019-05-13T02:43:33.388Z,4.67
2019-05-13T02:46:04.162Z,5.17
2019-05-13T02:48:33.766Z,5.20
2019-05-13T02:51:03.658Z,5.10
2019-05-13T02:53:33.751Z,5.60
2019-05-13T02:56:03.532Z,5.83
2019-05-13T02:58:33.524Z,5.13
2019-05-13T03:01:03.493Z,5.03
2019-05-13T03:03:33.045Z,5.07
2019-05-13T03:06:03.168Z,5.20
2019-05-13T03:08:44.294Z,6.37
2019-05-13T03:11:03.479Z,5.27
2019-05-13T03:13:33.179Z,5.20
2019-05-13T03:16:13.290Z,5.70
2019-05-13T03:18:53.286Z,5.53
2019-05-13T03:21:27.334Z,5.50
2019-05-13T03:23:56.191Z,8.10
2019-05-13T03:26:25.138Z,6.03
2019-05-13T03:28:54.131Z,8.23
2019-05-13T03:31:26.277Z,6.00
2019-05-13T03:33:55.740Z,5.67
2019-05-13T03:36:26.210Z,6.97
2019-05-13T03:39:05.621Z,6.63
2019-05-13T03:41:32.729Z,6.27
2019-05-13T03:44:03.066Z,6.47
2019-05-13T03:46:53.113Z,6.83
2019-05-13T03:49:25.190Z,6.73
2019-05-13T03:51:54.323Z,10.03
2019-05-13T03:54:23.477Z,6.77
2019-05-13T03:56:53.185Z,6.83
2019-05-13T03:59:22.871Z,6.80
2019-05-13T04:01:52.811Z,6.97
2019-05-13T04:04:23.510Z,6.80
2019-05-13T04:06:53.148Z,11.03
2019-05-13T04:09:31.176Z,7.40
2019-05-13T04:11:53.365Z,7.13
2019-05-13T04:14:23.107Z,8.43
2019-05-13T04:16:53.403Z,7.50
2019-05-13T04:19:23.435Z,9.50
2019-05-13T04:21:53.118Z,8.20
2019-05-13T04:24:23.104Z,7.93
2019-05-13T04:26:53.336Z,8.80
2019-05-13T04:29:23.524Z,10.23
2019-05-13T04:31:53.371Z,8.40
2019-05-13T04:34:23.144Z,10.27
2019-05-13T04:36:52.592Z,9.27
2019-05-13T04:39:39.695Z,9.23
2019-05-13T04:41:53.020Z,8.07
2019-05-13T04:44:23.903Z,10.73
2019-05-13T04:46:53.458Z,8.63
2019-05-13T04:49:23.542Z,11.67
2019-05-13T04:51:52.946Z,8.40
2019-05-13T04:54:22.759Z,8.87
2019-05-13T04:56:52.633Z,8.17
2019-05-13T04:59:22.848Z,9.10
2019-05-13T05:02:22.295Z,8.83
2019-05-13T05:04:58.100Z,8.17
2019-05-13T05:07:42.056Z,8.80
2019-05-13T05:10:34.722Z,7.60
2019-05-13T05:13:22.007Z,7.40
2019-05-13T05:16:12.969Z,9.60
2019-05-13T05:19:19.275Z,9.27
2019-05-13T05:22:02.583Z,8.43
2019-05-13T05:25:08.162Z,7.30
2019-05-13T05:27:51.404Z,9.53
2019-05-13T05:31:02.323Z,8.20
2019-05-13T05:34:06.677Z,7.80
2019-05-13T05:36:56.785Z,7.73
2019-05-13T05:39:27.117Z,9.37
2019-05-13T05:41:57.162Z,8.43
2019-05-13T05:44:32.057Z,9.03
2019-05-13T05:47:02.985Z,6.07
2019-05-13T05:49:32.426Z,6.67
2019-05-13T05:52:03.578Z,6.63
2019-05-13T05:54:34.983Z,4.93
2019-05-13T05:57:05.260Z,6.13
2019-05-13T05:59:35.385Z,5.87
2019-05-13T06:02:05.265Z,6.80
2019-05-13T06:04:34.379Z,5.60
2019-05-13T06:07:03.621Z,7.20
2019-05-13T06:09:32.868Z,5.53
2019-05-13T06:12:02.009Z,7.97
2019-05-13T06:14:32.676Z,5.07
2019-05-13T06:17:02.797Z,6.30
2019-05-13T06:19:32.333Z,5.93
2019-05-13T06:22:02.219Z,6.10
2019-05-13T06:24:31.677Z,7.30
2019-05-13T06:27:01.523Z,5.10
2019-05-13T06:29:31.796Z,4.47
2019-05-13T06:32:15.189Z,6.23
2019-05-13T06:34:32.994Z,5.07
2019-05-13T06:37:02.231Z,7.37
2019-05-13T06:39:31.822Z,3.17
2019-05-13T06:42:02.649Z,8.27
2019-05-13T06:44:32.278Z,5.40
2019-05-13T06:47:02.573Z,4.87
2019-05-13T06:49:32.515Z,6.93
2019-05-13T06:52:02.102Z,4.27
2019-05-13T06:54:33.136Z,6.67
2019-05-13T06:57:05.085Z,4.27
2019-05-13T06:59:32.782Z,6.10
2019-05-13T07:02:02.353Z,6.67
2019-05-13T07:04:32.642Z,4.83
2019-05-13T07:07:12.842Z,3.93
2019-05-13T07:09:32.869Z,5.03
2019-05-13T07:12:03.085Z,4.97
2019-05-13T07:14:32.737Z,4.67
2019-05-13T07:17:02.352Z,3.97
2019-05-13T07:19:32.503Z,5.07
2019-05-13T07:22:03.114Z,4.83
2019-05-13T07:24:32.654Z,8.83
2019-05-13T07:27:02.262Z,6.60
2019-05-13T07:29:32.478Z,6.77
2019-05-13T07:32:02.299Z,4.17
2019-05-13T07:34:33.280Z,5.33
2019-05-13T07:37:02.707Z,6.27
2019-05-13T07:39:32.947Z,4.23
2019-05-13T07:42:05.442Z,4.73
2019-05-13T07:44:32.842Z,4.40
2019-05-13T07:47:03.521Z,6.97
2019-05-13T07:49:32.610Z,6.00
2019-05-13T07:52:02.000Z,6.63
2019-05-13T07:54:32.906Z,3.83
2019-05-13T07:57:02.379Z,3.33
2019-05-13T07:59:32.082Z,6.23
2019-05-13T08:02:02.486Z,3.23
2019-05-13T08:04:33.422Z,3.43
2019-05-13T08:07:02.631Z,3.90
2019-05-13T08:09:32.321Z,2.27
2019-05-13T08:12:09.870Z,6.17
2019-05-13T08:14:33.194Z,6.97
2019-05-13T08:17:02.877Z,5.17
2019-05-13T08:19:32.822Z,1.70
2019-05-13T08:22:02.542Z,5.40
2019-05-13T08:24:31.858Z,5.93
2019-05-13T08:27:02.082Z,4.93
2019-05-13T08:29:32.698Z,3.27
2019-05-13T08:32:02.986Z,4.67
2019-05-13T08:34:33.049Z,6.13
2019-05-13T08:37:03.228Z,5.83
2019-05-13T08:39:38.073Z,3.93
2019-05-13T08:42:15.012Z,4.67
2019-05-13T08:44:34.205Z,7.77
2019-05-13T08:47:03.623Z,5.20
2019-05-13T08:49:33.013Z,4.63
2019-05-13T08:52:02.189Z,3.90
2019-05-13T08:54:32.935Z,2.90
2019-05-13T08:57:02.922Z,3.90
2019-05-13T08:59:32.400Z,2.83
2019-05-13T09:02:02.981Z,3.97
2019-05-13T09:04:32.198Z,3.17
2019-05-13T09:07:02.448Z,5.17
2019-05-13T09:09:31.809Z,3.03
2019-05-13T09:12:02.414Z,4.47
2019-05-13T09:14:32.525Z,3.07
2019-05-13T09:17:04.932Z,3.43
2019-05-13T09:19:33.947Z,2.40
2019-05-13T09:22:03.485Z,3.20
2019-05-13T09:24:37.237Z,5.63
2019-05-13T09:27:03.334Z,3.60
2019-05-13T09:29:32.577Z,3.30
2019-05-13T09:32:03.936Z,3.80
2019-05-13T09:34:33.055Z,3.80
2019-05-13T09:37:02.924Z,3.83
2019-05-13T09:39:33.130Z,3.93
2019-05-13T09:42:02.929Z,5.17
2019-05-13T09:44:32.944Z,3.33
2019-05-13T09:47:02.812Z,5.10
2019-05-13T09:49:33.147Z,4.07
2019-05-13T09:52:02.678Z,2.90
2019-05-13T09:54:33.028Z,3.00
2019-05-13T09:57:02.154Z,2.83
2019-05-13T09:59:32.073Z,3.50
2019-05-13T10:02:02.922Z,3.07
2019-05-13T10:04:32.111Z,5.17
2019-05-13T10:07:02.201Z,1.80
2019-05-13T10:09:32.829Z,4.10
2019-05-13T10:12:03.142Z,2.80
2019-05-13T10:14:33.228Z,3.20
2019-05-13T10:17:06.122Z,3.30
2019-05-13T10:19:33.183Z,3.57
2019-05-13T10:22:03.556Z,4.20
2019-05-13T10:24:32.976Z,3.53
2019-05-13T10:27:07.807Z,4.00
2019-05-13T10:29:37.444Z,1.87
2019-05-13T10:32:06.547Z,4.93
2019-05-13T10:34:35.695Z,3.17
2019-05-13T10:37:04.683Z,1.33
2019-05-13T10:39:33.728Z,1.33
2019-05-13T10:42:03.825Z,1.97
2019-05-13T10:44:33.301Z,3.43
2019-05-13T10:47:02.630Z,4.53
2019-05-13T10:49:33.147Z,4.93
2019-05-13T10:52:03.214Z,5.00
2019-05-13T10:54:33.670Z,4.17
2019-05-13T10:57:03.874Z,4.57
2019-05-13T10:59:33.355Z,3.83
2019-05-13T11:02:02.578Z,2.27
2019-05-13T11:04:35.149Z,5.70
2019-05-13T11:07:04.320Z,3.80
2019-05-13T11:09:33.222Z,1.53
2019-05-13T11:12:03.605Z,4.17
2019-05-13T11:14:36.535Z,5.57
2019-05-13T11:17:06.063Z,4.40
2019-05-13T11:19:37.134Z,5.63
2019-05-13T11:22:06.289Z,2.67
2019-05-13T11:24:35.186Z,4.40
2019-05-13T11:27:04.595Z,1.30
2019-05-13T11:29:33.532Z,4.87
2019-05-13T11:32:02.919Z,1.37
2019-05-13T11:34:32.863Z,4.07
2019-05-13T11:37:03.734Z,3.60
2019-05-13T11:39:33.062Z,4.73
2019-05-13T11:42:02.459Z,1.27
2019-05-13T11:44:32.417Z,2.20
2019-05-13T11:47:02.932Z,3.13
2019-05-13T11:49:32.070Z,1.80
2019-05-13T11:52:02.750Z,2.67
2019-05-13T11:54:31.801Z,2.53
2019-05-13T11:57:05.767Z,4.47
2019-05-13T11:59:32.967Z,4.87
2019-05-13T12:02:04.417Z,5.23
2019-05-13T12:04:38.057Z,3.60
2019-05-13T12:07:07.062Z,2.13
2019-05-13T12:09:36.132Z,3.47
2019-05-13T12:12:06.430Z,0.67
2019-05-13T12:14:50.632Z,7.13
2019-05-13T12:17:06.199Z,2.70
2019-05-13T12:19:35.204Z,2.73
2019-05-13T12:22:06.975Z,1.43
2019-05-13T12:24:41.329Z,0.87
2019-05-13T12:27:10.998Z,1.33
2019-05-13T12:29:42.950Z,1.23
2019-05-13T12:32:13.557Z,2.73
2019-05-13T12:34:48.208Z,2.67
2019-05-13T12:37:17.366Z,1.23
2019-05-13T12:39:46.340Z,2.10
2019-05-13T12:42:15.663Z,0.90
2019-05-13T12:45:00.594Z,1.20
2019-05-13T12:47:17.726Z,1.63
2019-05-13T12:49:46.612Z,1.77
2019-05-13T12:52:22.880Z,2.47
2019-05-13T12:54:52.842Z,1.57
2019-05-13T12:57:23.134Z,3.10
2019-05-13T12:59:52.372Z,0.80
2019-05-13T13:02:22.654Z,3.33
2019-05-13T13:05:10.611Z,1.40
2019-05-13T13:07:22.510Z,3.70
2019-05-13T13:09:53.660Z,1.07
2019-05-13T13:12:32.736Z,2.67
2019-05-13T13:14:54.473Z,2.43
2019-05-13T13:17:24.397Z,2.43
2019-05-13T13:19:54.725Z,4.57
2019-05-13T13:22:25.484Z,2.70
2019-05-13T13:24:57.344Z,3.17
2019-05-13T13:27:57.396Z,6.30
2019-05-13T13:30:03.104Z,2.20
2019-05-13T13:32:26.958Z,3.63
2019-05-13T13:34:55.898Z,3.30
2019-05-13T13:37:25.402Z,1.17
2019-05-13T13:39:55.385Z,0.60
2019-05-13T13:42:24.693Z,3.87
2019-05-13T13:44:55.617Z,2.60
2019-05-13T13:47:24.647Z,0.47
2019-05-13T13:49:53.732Z,1.57
2019-05-13T13:52:23.154Z,1.63
2019-05-13T13:55:01.962Z,4.20
2019-05-13T13:57:25.661Z,2.10
2019-05-13T14:00:20.061Z,4.00
2019-05-13T14:02:26.041Z,2.00
2019-05-13T14:04:54.984Z,1.93
2019-05-13T14:07:34.715Z,1.87
2019-05-13T14:09:54.464Z,0.90
2019-05-13T14:12:23.482Z,3.90
2019-05-13T14:14:52.455Z,1.23
2019-05-13T14:17:21.979Z,3.70
2019-05-13T14:19:52.412Z,3.17
2019-05-13T14:22:21.949Z,1.50
2019-05-13T14:24:52.000Z,1.43
2019-05-13T14:27:22.411Z,4.73
2019-05-13T14:29:52.622Z,4.57
2019-05-13T14:32:22.526Z,3.67
2019-05-13T14:34:52.496Z,3.53
2019-05-13T14:37:22.478Z,2.93
2019-05-13T14:39:51.625Z,2.83
2019-05-13T14:42:22.712Z,3.00
2019-05-13T14:44:52.114Z,3.30
2019-05-13T14:47:21.917Z,0.70
2019-05-13T14:49:52.120Z,4.13
2019-05-13T14:52:22.361Z,3.13
2019-05-13T14:54:51.605Z,3.27
2019-05-13T14:57:21.766Z,3.17
2019-05-13T14:59:51.515Z,1.63
2019-05-13T15:02:20.741Z,3.43
2019-05-13T15:04:52.143Z,3.03
2019-05-13T15:07:21.627Z,3.57
2019-05-13T15:09:51.547Z,1.67
2019-05-13T15:12:21.667Z,3.70
2019-05-13T15:14:52.253Z,2.20
2019-05-13T15:17:21.884Z,2.07
2019-05-13T15:19:52.469Z,2.13
2019-05-13T15:22:22.743Z,2.97
2019-05-13T15:24:52.187Z,2.80
2019-05-13T15:27:22.283Z,2.20
2019-05-13T15:29:51.796Z,5.10
2019-05-13T15:32:21.737Z,4.43
2019-05-13T15:34:54.068Z,2.47
2019-05-13T15:37:23.034Z,2.97
2019-05-13T15:39:52.062Z,3.70
2019-05-13T15:42:21.456Z,1.47
2019-05-13T15:44:52.560Z,1.93
2019-05-13T15:47:24.071Z,2.07
2019-05-13T15:49:52.543Z,2.23
2019-05-13T15:52:22.650Z,1.07
2019-05-13T15:54:52.303Z,3.40
2019-05-13T15:57:21.554Z,2.90
2019-05-13T15:59:51.793Z,3.33
2019-05-13T16:02:22.657Z,4.23
2019-05-13T16:04:59.846Z,3.00
2019-05-13T16:07:22.751Z,2.10
2019-05-13T16:09:52.618Z,4.70
2019-05-13T16:12:21.926Z,4.90
2019-05-13T16:14:51.157Z,1.53
2019-05-13T16:17:26.163Z,4.47
2019-05-13T16:19:53.384Z,3.50
2019-05-13T16:22:23.070Z,4.30
2019-05-13T16:24:52.344Z,2.10
2019-05-13T16:27:21.673Z,6.20
2019-05-13T16:29:51.644Z,3.20
2019-05-13T16:32:22.705Z,2.67
2019-05-13T16:34:52.114Z,3.03
2019-05-13T16:37:22.002Z,2.47
2019-05-13T16:39:52.029Z,4.13
2019-05-13T16:42:22.517Z,2.40
2019-05-13T16:44:51.800Z,3.80
2019-05-13T16:47:21.316Z,1.40
2019-05-13T16:49:50.258Z,2.63
2019-05-13T16:52:19.268Z,4.70
2019-05-13T16:54:48.309Z,3.47
2019-05-13T16:57:17.313Z,5.57
2019-05-13T16:59:46.301Z,1.93
2019-05-13T17:02:15.311Z,2.13
2019-05-13T17:04:44.178Z,4.20
2019-05-13T17:07:13.181Z,2.37
2019-05-13T17:09:42.141Z,2.63
2019-05-13T17:12:13.911Z,2.77
2019-05-13T17:14:42.053Z,6.87
2019-05-13T17:17:11.929Z,3.77
2019-05-13T17:19:42.203Z,1.93
2019-05-13T17:22:11.564Z,5.27
2019-05-13T17:24:42.623Z,4.90
2019-05-13T17:27:12.127Z,3.20
2019-05-13T17:29:41.480Z,2.10
2019-05-13T17:32:11.687Z,4.87
2019-05-13T17:34:43.634Z,2.70
2019-05-13T17:37:14.882Z,2.17
2019-05-13T17:39:44.003Z,2.90
2019-05-13T17:42:13.006Z,2.27
2019-05-13T17:44:45.861Z,5.57
2019-05-13T17:47:12.853Z,2.80
2019-05-13T17:49:41.943Z,1.83
2019-05-13T17:52:11.878Z,1.57
2019-05-13T17:54:42.851Z,5.53
2019-05-13T17:57:12.478Z,3.90
2019-05-13T17:59:41.886Z,4.83
2019-05-13T18:02:11.837Z,2.60
2019-05-13T18:04:41.585Z,2.33
2019-05-13T18:07:12.242Z,2.67
2019-05-13T18:09:42.305Z,1.53
2019-05-13T18:12:11.630Z,3.60
2019-05-13T18:14:41.329Z,3.63
2019-05-13T18:17:12.558Z,3.43
2019-05-13T18:19:42.161Z,3.83
2019-05-13T18:22:11.625Z,1.57
2019-05-13T18:24:40.697Z,2.53
2019-05-13T18:27:12.071Z,2.87
2019-05-13T18:29:41.994Z,1.37
2019-05-13T18:32:12.351Z,2.10
2019-05-13T18:34:41.582Z,8.10
2019-05-13T18:37:11.883Z,4.93
2019-05-13T18:39:41.745Z,2.57
2019-05-13T18:42:11.522Z,0.87
2019-05-13T18:44:42.144Z,2.40
2019-05-13T18:47:12.209Z,1.67
2019-05-13T18:49:42.290Z,1.10
2019-05-13T18:52:12.006Z,2.37
2019-05-13T18:54:42.118Z,3.00
2019-05-13T18:57:12.254Z,2.33
2019-05-13T18:59:41.742Z,2.83
2019-05-13T19:02:12.258Z,1.10
2019-05-13T19:04:41.855Z,3.40
2019-05-13T19:07:11.058Z,2.23
2019-05-13T19:09:41.725Z,2.90
2019-05-13T19:12:11.683Z,2.93
2019-05-13T19:14:41.232Z,5.07
2019-05-13T19:17:12.423Z,1.43
2019-05-13T19:19:42.179Z,2.97
2019-05-13T19:22:12.288Z,4.73
2019-05-13T19:24:41.728Z,4.67
2019-05-13T19:27:12.047Z,2.17
2019-05-13T19:29:42.509Z,1.20
2019-05-13T19:32:12.434Z,5.07
2019-05-13T19:34:42.317Z,1.77
2019-05-13T19:37:11.743Z,3.57
2019-05-13T19:39:40.799Z,1.90
2019-05-13T19:42:11.559Z,4.27
2019-05-13T19:44:42.059Z,4.63
2019-05-13T19:47:12.362Z,4.00
2019-05-13T19:49:46.108Z,1.90
2019-05-13T19:52:12.605Z,4.83
2019-05-13T19:54:41.971Z,5.40
2019-05-13T19:57:11.944Z,2.40
2019-05-13T19:59:42.682Z,3.50
2019-05-13T20:02:12.368Z,2.80
2019-05-13T20:04:41.810Z,2.67
2019-05-13T20:07:11.828Z,3.03
2019-05-13T20:09:42.535Z,4.43
2019-05-13T20:12:11.970Z,1.87
2019-05-13T20:14:40.935Z,3.47
2019-05-13T20:17:12.129Z,3.97
2019-05-13T20:19:47.790Z,1.97
2019-05-13T20:22:11.681Z,2.87
2019-05-13T20:24:42.006Z,2.77
2019-05-13T20:27:12.022Z,1.53
2019-05-13T20:29:41.798Z,2.93
2019-05-13T20:32:11.638Z,1.30
2019-05-13T20:34:40.733Z,1.73
2019-05-13T20:37:12.242Z,3.07
2019-05-13T20:39:42.424Z,2.73
2019-05-13T20:42:12.473Z,2.17
2019-05-13T20:44:42.103Z,5.60
2019-05-13T20:47:11.052Z,2.00
2019-05-13T20:49:41.748Z,5.20
2019-05-13T20:52:14.670Z,1.80
2019-05-13T20:54:41.674Z,2.90
2019-05-13T20:57:11.116Z,3.10
2019-05-13T20:59:41.363Z,2.87
2019-05-13T21:02:12.487Z,3.03
2019-05-13T21:04:41.523Z,5.53
2019-05-13T21:07:10.461Z,3.70
2019-05-13T21:09:39.344Z,3.53
2019-05-13T21:12:08.352Z,4.50
2019-05-13T21:14:38.613Z,3.27
2019-05-13T21:17:07.819Z,3.20
2019-05-13T21:19:39.660Z,4.30
2019-05-13T21:22:07.465Z,3.63
2019-05-13T21:24:36.476Z,2.93
2019-05-13T21:27:05.523Z,3.83
2019-05-13T21:29:34.465Z,4.30
2019-05-13T21:32:03.425Z,4.70
2019-05-13T21:34:32.480Z,4.10
2019-05-13T21:37:02.274Z,4.57
2019-05-13T21:39:33.135Z,3.53
2019-05-13T21:42:02.510Z,3.37
2019-05-13T21:44:32.644Z,4.17
2019-05-13T21:47:02.276Z,4.17
2019-05-13T21:49:31.979Z,4.20
2019-05-13T21:52:01.165Z,4.70
2019-05-13T21:54:33.260Z,5.23
2019-05-13T21:57:02.257Z,4.93
2019-05-13T21:59:32.112Z,5.43
2019-05-13T22:02:02.216Z,3.80
2019-05-13T22:04:31.430Z,5.90
2019-05-13T22:07:01.467Z,5.07
2019-05-13T22:09:31.759Z,3.97
2019-05-13T22:12:02.008Z,3.50
2019-05-13T22:14:31.944Z,3.83
2019-05-13T22:17:01.725Z,4.03
2019-05-13T22:19:31.605Z,5.43
2019-05-13T22:22:02.322Z,4.30
2019-05-13T22:24:31.633Z,4.57
2019-05-13T22:27:01.959Z,3.57
2019-05-13T22:29:32.141Z,3.53
2019-05-13T22:32:02.023Z,4.07
2019-05-13T22:34:32.030Z,3.57
2019-05-13T22:37:02.719Z,5.57
2019-05-13T22:39:34.611Z,4.03
2019-05-13T22:42:02.411Z,3.17
2019-05-13T22:44:32.475Z,3.07
2019-05-13T22:47:02.562Z,6.37
2019-05-13T22:49:31.775Z,4.40
2019-05-13T22:52:00.769Z,3.67
2019-05-13T22:54:31.670Z,3.50
2019-05-13T22:57:00.252Z,4.50
2019-05-13T22:59:29.114Z,3.27
2019-05-13T23:01:58.116Z,4.00
2019-05-13T23:04:27.014Z,3.87
2019-05-13T23:06:55.922Z,4.10
2019-05-13T23:09:24.868Z,4.23
2019-05-13T23:11:53.883Z,3.70
2019-05-13T23:14:22.983Z,4.63
2019-05-13T23:16:52.004Z,4.70
2019-05-13T23:19:21.741Z,6.33
2019-05-13T23:21:51.215Z,5.53
2019-05-13T23:24:21.829Z,3.33
2019-05-13T23:26:51.638Z,5.00
2019-05-13T23:29:21.377Z,4.90
2019-05-13T23:31:52.077Z,4.57
2019-05-13T23:34:22.282Z,6.37
2019-05-13T23:36:51.733Z,5.20
2019-05-13T23:39:21.586Z,5.93
2019-05-13T23:41:52.144Z,4.23
2019-05-13T23:44:27.113Z,5.87
2019-05-13T23:46:51.951Z,4.50
2019-05-13T23:49:21.186Z,4.70
2019-05-13T23:51:52.025Z,4.17
2019-05-13T23:54:21.450Z,7.10
2019-05-13T23:56:50.525Z,4.23
2019-05-13T23:59:21.770Z,5.70
